Terminal Aerodrome Forecast
Issued by NWS

Current Version | Previous Version | Text Only | Print | Product List | Glossary On
Versions: 1 2 3 4 5 6 7 8 9 10 11 12 13 14
000
FTUS44 KLZK 311336 AAB
TAFHRO
TAF AMD
KHRO 311336Z 3114/0112 32005KT P6SM SCT080
      TEMPO 3114/3115 5SM BR FEW080
     FM311500 07006KT P6SM SCT250
     FM010000 28003KT P6SM SCT250=

USA.gov is the U.S. government's official web portal to all federal, state and local government web resources and services.